map of GSQ home
GSQ - Airport
Location
City:  Sharq Al-Owainat, Al Wadi al Jadid (New Valley), Egypt
Name:Sharq Al-Owainat International Airport
ICAO:HEOW
IATA:GSQ

Details
Type:Airport (Aerodrome, Airfield)
Use:Public/Civil, International (customs port of entry)
Latitude:2235'08"N (22.585672)
Longitude:2843'00"E (28.716642)
Datum:WGS 1984
Elevation:859 ft (262 m)
Variation:3.64E (WMM2015 magnetic declination)
0.09 annual change
Runways:1
Longest:11483 × 148 ft (3500 × 45 m), paved

Time
Time Zone:UTC+2
Local Time:

Weather
TAF:HEOW 071700Z 0718/0824 35012KT CAVOK

Related Locations
Nearby:
Farthest:RUR: 12443 mi / 20025 km
Rurutu, Tubuai Islands, Austral Islands, PF

Find:

   beyond  
but within

Other Information
Maps:
NOTAMs:
Links:
Sources:

  
flag of Egypt
flag of Al Wadi al Jadid (New Valley)
  

Sectional Chart

Flight Planning
at skyvector.com

Satellite Image

Google Maps Satellite view

 

Copyright © 2004-2016 Karl L. Swartz. All rights reserved.
The Great Circle Mapper name and logo are trademarks of the Great Circle Mapper.
All other trademarks mentioned herein belong to their respective owners.
Please see credits for attibutions and further copyright information.

  Follow gcmap on Facebook Follow gcmap on Twitter Follow gcmap on Google+ GCmap on LinkedIn

hCard Microformat

Geo Microformat